• Join FlightAware (Why Join?)
  • Login
  • US Flag 
11:48PM EDT


 

Airport Tracker/Info


-or-


 

Live Flight TrackerFlight Track Log ✈ CTL13 ✈ 30-Apr-2013 ✈ KBKL - KEYE

Flight Track Log - Related Links

Times and Time Zones

All times are in EDT time to prevent confusion due to time zone crossing. See the CTL13 flight status page for this flight to view local times or setup timezone preferences in your user account.

Time Position Orientation Groundspeed Altitude Reporting Facility
EDT Latitude Longitude Course Direction KTS MPH feet Rate Location/Type
06:32PM 41.5317 -81.6678 39° Northeast 129 148 1,100  Level Cleveland Center
06:33PM 41.5569 -81.6403 39° Northeast 135 155 2,100 1,080 Climbing Cleveland Center
06:34PM 41.5858 -81.6853 311° West 142 163 3,200 960 Climbing Cleveland Center
06:35PM 41.6019 -81.7217 301° West 139 160 4,000 900 Climbing Cleveland Center
06:36PM 41.6183 -81.7636 298° West 140 161 4,900 840 Climbing Cleveland Center
06:37PM 41.6136 -81.8078 262° West 145 167 5,600 600 Climbing Cleveland Center
06:38PM 41.5964 -81.8547 244° Southwest 149 171 6,100 480 Climbing Cleveland Center
06:39PM 41.5772 -81.9017 241° Southwest 146 168 6,600 420 Climbing Cleveland Center
06:40PM 41.5536 -81.9594 241° Southwest 153 176 7,000 360 Climbing Cleveland Center
06:41PM 41.5342 -82.0089 242° Southwest 153 176 7,400 360 Climbing Cleveland Center
06:42PM 41.5147 -82.0583 242° Southwest 154 177 7,800 240 Climbing Cleveland Center
06:43PM 41.4933 -82.1050 239° Southwest 156 180 8,000 60 Climbing Cleveland Center
06:44PM 41.4653 -82.1736 241° Southwest 172 198 8,000  Level Cleveland Center
06:45PM 41.4414 -82.2311 241° Southwest 165 190 8,000  Level Cleveland Center
06:47PM 41.4052 -82.2914 231° Southwest  Level FlightAware Approximate
06:54PM 41.2530 -82.6372 238° Southwest  Level FlightAware Approximate
06:55PM 41.2304 -82.6857 238° Southwest  Level FlightAware Approximate
06:56PM 41.2079 -82.7342 238° Southwest  Level FlightAware Approximate
06:57PM 41.1853 -82.7826 238° Southwest  Level FlightAware Approximate
06:57PM 41.1878 -82.8431 240° Southwest 162 186 8,000  Level Indianapolis Center
06:58PM 41.1627 -82.8310 238° Southwest  Level FlightAware Approximate
06:58PM 41.1658 -82.8956 241° Southwest 162 186 8,000  Level Indianapolis Center
06:59PM 41.1400 -82.8793 238° Southwest  Level FlightAware Approximate
06:59PM 41.1400 -82.9569 241° Southwest 163 188 8,100  Level Indianapolis Center
07:00PM 41.1173 -82.9277 238° Southwest  Level FlightAware Approximate
07:00PM 41.1183 -83.0097 241° Southwest 162 186 8,000  Level Indianapolis Center
07:01PM 41.0947 -82.9759 238° Southwest  Level FlightAware Approximate
07:01PM 41.0956 -83.0628 240° Southwest 164 189 8,100  Level Indianapolis Center
07:02PM 41.0724 -83.0246 240° Southwest  Level FlightAware Approximate
07:02PM 41.0731 -83.1156 241° Southwest 163 188 8,000  Level Indianapolis Center
07:03PM 41.0517 -83.1683 242° Southwest 163 188 8,000  Level Indianapolis Center
07:04PM 41.0303 -83.2214 242° Southwest 162 186 8,100  Climbing Indianapolis Center
07:05PM 41.0081 -83.2733 240° Southwest 162 186 8,000 -60 Descending Indianapolis Center
07:06PM 40.9819 -83.3339 240° Southwest 161 185 8,000  Level Indianapolis Center
07:07PM 40.9583 -83.3864 239° Southwest 163 188 8,100  Climbing Indianapolis Center
07:08PM 40.9353 -83.4383 240° Southwest 163 188 8,100 -60 Level Indianapolis Center
07:09PM 40.9128 -83.4900 240° Southwest 161 185 8,000 -60 Descending Indianapolis Center
07:10PM 40.8869 -83.5469 239° Southwest 163 188 8,000  Level Indianapolis Center
07:11PM 40.8644 -83.5992 240° Southwest 163 188 8,100  Climbing Indianapolis Center
07:12PM 40.8414 -83.6506 239° Southwest 162 186 8,100 -60 Level Indianapolis Center
07:14PM 40.8189 -83.7039 241° Southwest 164 189 8,000 -60 Descending Indianapolis Center
07:15PM 40.7958 -83.7550 239° Southwest 162 186 8,000  Level Indianapolis Center
07:16PM 40.7733 -83.8081 241° Southwest 163 188 8,000  Level Indianapolis Center
07:17PM 40.7522 -83.8608 242° Southwest 163 188 8,000  Level Indianapolis Center
07:18PM 40.7294 -83.9131 240° Southwest 163 188 8,000  Level Indianapolis Center
07:19PM 40.7039 -83.9744 241° Southwest 163 188 8,000  Level Indianapolis Center
07:20PM 40.6789 -84.0236 236° Southwest 161 185 8,000  Level Indianapolis Center
07:21PM 40.6525 -84.0725 235° Southwest 161 185 8,000  Level Indianapolis Center
07:21PM 40.6344 -84.1042 233° Southwest 160 184 8,000 60 Level Indianapolis Center
07:22PM 40.6269 -84.1219 241° Southwest 162 186 8,100  Climbing Indianapolis Center
07:23PM 40.6006 -84.1700 234° Southwest 161 185 8,000 -60 Descending Indianapolis Center
07:24PM 40.5731 -84.2192 234° Southwest 163 188 8,000  Level Indianapolis Center
07:25PM 40.5469 -84.2675 235° Southwest 163 188 8,000  Level Indianapolis Center
07:26PM 40.5167 -84.3247 235° Southwest 163 188 8,000  Level Indianapolis Center
07:27PM 40.4894 -84.3761 235° Southwest 163 188 8,000  Level Indianapolis Center
07:28PM 40.4625 -84.4244 234° Southwest 163 188 8,000  Level Indianapolis Center
07:29PM 40.4378 -84.4731 236° Southwest 163 188 8,000  Level Indianapolis Center
07:30PM 40.4108 -84.5217 234° Southwest 163 188 8,000  Level Indianapolis Center
07:31PM 40.3858 -84.5703 236° Southwest 164 189 8,000  Level Indianapolis Center
07:32PM 40.3564 -84.6236 234° Southwest 164 189 8,000  Level Indianapolis Center
07:33PM 40.3317 -84.6694 235° Southwest 162 186 8,000  Level Indianapolis Center
07:34PM 40.3044 -84.7203 235° Southwest 164 189 8,000  Level Indianapolis Center
07:35PM 40.2750 -84.7739 234° Southwest 161 185 8,000  Level Indianapolis Center
07:36PM 40.2481 -84.8225 234° Southwest 163 188 8,000  Level Indianapolis Center
07:37PM 40.2228 -84.8728 237° Southwest 164 189 8,000  Level Indianapolis Center
07:38PM 40.1953 -84.9233 235° Southwest 162 186 8,000  Level Indianapolis Center
07:39PM 40.1728 -84.9642 234° Southwest 164 189 8,000  Level Indianapolis Center
07:40PM 40.1456 -85.0122 233° Southwest 164 189 8,000  Level Indianapolis Center
07:40PM 40.1419 -85.0214 243° Southwest 164 189 8,000  Level Indianapolis Center
07:41PM 40.1225 -85.0608 237° Southwest 162 186 8,000  Level Indianapolis Center
07:41PM 40.1172 -85.0708 235° Southwest 163 188 8,000  Level Indianapolis Center
07:42PM 40.0908 -85.1186 234° Southwest 161 185 8,000  Level Indianapolis Center
07:43PM 40.0658 -85.1672 236° Southwest 161 185 8,100  Climbing Indianapolis Center
07:44PM 40.0608 -85.2375 265° West 166 191 8,100 -60 Level Indianapolis Center
07:45PM 40.0569 -85.2986 265° West 167 192 8,000 -360 Descending Indianapolis Center
07:46PM 40.0522 -85.3628 265° West 176 203 7,400 -600 Descending Indianapolis Center
07:48PM 40.0486 -85.4292 266° West 181 208 6,800 -540 Descending Indianapolis Center
07:49PM 40.0417 -85.4972 262° West 185 213 6,300 -480 Descending Indianapolis Center
07:50PM 40.0381 -85.5631 266° West 184 212 5,900 -240 Descending Indianapolis Center
07:51PM 40.0347 -85.6256 266° West 178 205 5,900 -360 Level Indianapolis Center
07:52PM 40.0297 -85.6886 264° West 174 200 5,200 -660 Descending Indianapolis Center
07:53PM 40.0253 -85.7672 266° West 181 208 4,600 -540 Descending Indianapolis Center
07:54PM 40.0219 -85.8319 266° West 180 207 4,100 -360 Descending Indianapolis Center
07:55PM 40.0175 -85.8942 265° West 176 203 3,900 -180 Descending Indianapolis Center
07:56PM 40.0131 -85.9536 264° West 170 196 3,800 -300 Descending Indianapolis Center
07:57PM 40.0069 -86.0144 263° West 168 193 3,400 -420 Descending Indianapolis Center
07:58PM 39.9761 -86.0619 230° Southwest 170 196 3,000 -300 Descending Indianapolis Center
07:59PM 39.9428 -86.1139 230° Southwest 169 194 2,900 -120 Descending Indianapolis Center